sensor_id;sensor_type;location;lat;lon;timestamp;pressure;altitude;pressure_sealevel;temperature;humidity
76297;BME280;65104;52.994;6.552;2022-11-18T00:02:19;99610.91;;;6.28;94.15
76297;BME280;65104;52.994;6.552;2022-11-18T00:04:44;99604.91;;;6.23;94.98
76297;BME280;65104;52.994;6.552;2022-11-18T00:07:10;99618.69;;;6.34;93.77
76297;BME280;65104;52.994;6.552;2022-11-18T00:09:35;99621.16;;;6.30;94.48
76297;BME280;65104;52.994;6.552;2022-11-18T00:12:01;99626.34;;;6.34;94.88
76297;BME280;65104;52.994;6.552;2022-11-18T00:14:45;99624.59;;;6.32;94.54
76297;BME280;65104;52.994;6.552;2022-11-18T00:17:10;99633.13;;;6.35;95.03
76297;BME280;65104;52.994;6.552;2022-11-18T00:19:38;99630.47;;;6.29;94.43
76297;BME280;65104;52.994;6.552;2022-11-18T00:22:04;99630.53;;;6.32;94.77
76297;BME280;65104;52.994;6.552;2022-11-18T00:24:30;99635.63;;;6.32;94.76
76297;BME280;65104;52.994;6.552;2022-11-18T00:26:56;99645.00;;;6.33;94.46
76297;BME280;65104;52.994;6.552;2022-11-18T00:29:22;99649.19;;;6.30;94.25
76297;BME280;65104;52.994;6.552;2022-11-18T00:31:53;99646.72;;;6.34;94.22
76297;BME280;65104;52.994;6.552;2022-11-18T00:34:19;99642.34;;;6.27;93.98
76297;BME280;65104;52.994;6.552;2022-11-18T00:36:45;99643.19;;;6.28;95.03
76297;BME280;65104;52.994;6.552;2022-11-18T00:39:12;99656.03;;;6.32;94.95
76297;BME280;65104;52.994;6.552;2022-11-18T00:41:38;99650.03;;;6.30;94.62
76297;BME280;65104;52.994;6.552;2022-11-18T00:44:22;99657.69;;;6.30;95.00
76297;BME280;65104;52.994;6.552;2022-11-18T00:46:47;99660.25;;;6.30;94.18
76297;BME280;65104;52.994;6.552;2022-11-18T00:49:13;99659.38;;;6.30;94.38
76297;BME280;65104;52.994;6.552;2022-11-18T00:51:40;99660.28;;;6.32;94.98
76297;BME280;65104;52.994;6.552;2022-11-18T00:54:06;99663.66;;;6.31;94.83
76297;BME280;65104;52.994;6.552;2022-11-18T00:56:31;99666.16;;;6.29;94.98
76297;BME280;65104;52.994;6.552;2022-11-18T00:58:57;99659.34;;;6.28;94.51
76297;BME280;65104;52.994;6.552;2022-11-18T01:01:23;99665.34;;;6.30;94.45
76297;BME280;65104;52.994;6.552;2022-11-18T01:03:48;99667.84;;;6.29;95.58
76297;BME280;65104;52.994;6.552;2022-11-18T01:06:14;99668.72;;;6.29;95.11
76297;BME280;65104;52.994;6.552;2022-11-18T01:08:39;99674.69;;;6.30;94.92
76297;BME280;65104;52.994;6.552;2022-11-18T01:11:05;99688.31;;;6.32;95.39
76297;BME280;65104;52.994;6.552;2022-11-18T01:13:50;99690.00;;;6.31;95.36
76297;BME280;65104;52.994;6.552;2022-11-18T01:16:20;99690.00;;;6.31;95.55
76297;BME280;65104;52.994;6.552;2022-11-18T01:18:46;99689.06;;;6.25;94.84
76297;BME280;65104;52.994;6.552;2022-11-18T01:21:12;99692.56;;;6.31;95.38
76297;BME280;65104;52.994;6.552;2022-11-18T01:23:37;99695.88;;;6.26;95.07
76297;BME280;65104;52.994;6.552;2022-11-18T01:26:04;99711.16;;;6.26;95.06
76297;BME280;65104;52.994;6.552;2022-11-18T01:28:30;99702.66;;;6.27;95.23
76297;BME280;65104;52.994;6.552;2022-11-18T01:31:12;99708.63;;;6.27;94.99
76297;BME280;65104;52.994;6.552;2022-11-18T01:33:38;99720.59;;;6.31;95.62
76297;BME280;65104;52.994;6.552;2022-11-18T01:36:04;99712.84;;;6.27;95.57
76297;BME280;65104;52.994;6.552;2022-11-18T01:38:37;99715.38;;;6.24;95.13
76297;BME280;65104;52.994;6.552;2022-11-18T01:41:02;99717.09;;;6.26;95.01
76297;BME280;65104;52.994;6.552;2022-11-18T01:46:17;99721.38;;;6.27;94.91
76297;BME280;65104;52.994;6.552;2022-11-18T01:48:43;99722.97;;;6.22;94.68
76297;BME280;65104;52.994;6.552;2022-11-18T01:51:13;99735.88;;;6.30;95.67
76297;BME280;65104;52.994;6.552;2022-11-18T01:53:44;99726.53;;;6.30;94.03
76297;BME280;65104;52.994;6.552;2022-11-18T01:56:13;99728.28;;;6.33;94.62
76297;BME280;65104;52.994;6.552;2022-11-18T01:58:43;99735.09;;;6.35;94.88
76297;BME280;65104;52.994;6.552;2022-11-18T02:01:10;99723.09;;;6.28;94.17
76297;BME280;65104;52.994;6.552;2022-11-18T02:03:37;99731.66;;;6.32;94.47
76297;BME280;65104;52.994;6.552;2022-11-18T02:06:04;99737.63;;;6.32;94.92
76297;BME280;65104;52.994;6.552;2022-11-18T02:08:31;99740.03;;;6.26;94.39
76297;BME280;65104;52.994;6.552;2022-11-18T02:10:56;99745.19;;;6.29;94.42
76297;BME280;65104;52.994;6.552;2022-11-18T02:13:22;99749.50;;;6.32;94.96
76297;BME280;65104;52.994;6.552;2022-11-18T02:21:20;99746.00;;;6.25;94.79
76297;BME280;65104;52.994;6.552;2022-11-18T02:29:17;99765.59;;;6.29;94.94
76297;BME280;65104;52.994;6.552;2022-11-18T02:37:23;99765.56;;;6.28;94.02
76297;BME280;65104;52.994;6.552;2022-11-18T02:40:09;99767.25;;;6.26;94.03
76297;BME280;65104;52.994;6.552;2022-11-18T02:42:38;99768.97;;;6.28;94.83
76297;BME280;65104;52.994;6.552;2022-11-18T02:45:09;99774.91;;;6.26;95.13
76297;BME280;65104;52.994;6.552;2022-11-18T02:47:37;99772.34;;;6.26;94.30
76297;BME280;65104;52.994;6.552;2022-11-18T02:50:07;99775.69;;;6.23;94.49
76297;BME280;65104;52.994;6.552;2022-11-18T02:52:35;99770.63;;;6.25;95.07
76297;BME280;65104;52.994;6.552;2022-11-18T02:55:06;99774.91;;;6.27;94.33
76297;BME280;65104;52.994;6.552;2022-11-18T02:57:34;99782.47;;;6.23;94.14
76297;BME280;65104;52.994;6.552;2022-11-18T03:00:00;99781.69;;;6.25;94.75
76297;BME280;65104;52.994;6.552;2022-11-18T03:02:26;99791.81;;;6.22;94.57
76297;BME280;65104;52.994;6.552;2022-11-18T03:04:54;99792.63;;;6.21;94.40
76297;BME280;65104;52.994;6.552;2022-11-18T03:07:28;99789.22;;;6.21;94.60
76297;BME280;65104;52.994;6.552;2022-11-18T03:09:55;99794.28;;;6.19;94.13
76297;BME280;65104;52.994;6.552;2022-11-18T03:12:45;99796.84;;;6.19;94.34
76297;BME280;65104;52.994;6.552;2022-11-18T03:23:33;99807.91;;;6.20;94.46
76297;BME280;65104;52.994;6.552;2022-11-18T03:26:10;99813.03;;;6.21;94.73
76297;BME280;65104;52.994;6.552;2022-11-18T03:28:45;99818.91;;;6.17;94.77
76297;BME280;65104;52.994;6.552;2022-11-18T03:33:49;99819.00;;;6.22;94.56
76297;BME280;65104;52.994;6.552;2022-11-18T03:36:17;99823.22;;;6.21;94.19
76297;BME280;65104;52.994;6.552;2022-11-18T03:38:47;99831.84;;;6.28;94.87
76297;BME280;65104;52.994;6.552;2022-11-18T03:41:19;99828.34;;;6.23;94.58
76297;BME280;65104;52.994;6.552;2022-11-18T03:44:09;99834.25;;;6.20;93.81
76297;BME280;65104;52.994;6.552;2022-11-18T03:46:45;99842.72;;;6.19;93.84
76297;BME280;65104;52.994;6.552;2022-11-18T03:49:23;99841.81;;;6.16;94.31
76297;BME280;65104;52.994;6.552;2022-11-18T03:51:54;99841.81;;;6.16;93.82
76297;BME280;65104;52.994;6.552;2022-11-18T03:54:24;99846.09;;;6.18;94.37
76297;BME280;65104;52.994;6.552;2022-11-18T03:57:00;99851.91;;;6.11;93.28
76297;BME280;65104;52.994;6.552;2022-11-18T03:59:34;99850.19;;;6.10;94.48
76297;BME280;65104;52.994;6.552;2022-11-18T04:02:13;99852.88;;;6.16;94.80
76297;BME280;65104;52.994;6.552;2022-11-18T04:04:41;99862.13;;;6.13;93.80
76297;BME280;65104;52.994;6.552;2022-11-18T04:10:03;99862.97;;;6.12;94.24
76297;BME280;65104;52.994;6.552;2022-11-18T04:12:38;99861.22;;;6.11;94.62
76297;BME280;65104;52.994;6.552;2022-11-18T04:15:06;99873.94;;;6.09;94.48
76297;BME280;65104;52.994;6.552;2022-11-18T04:17:32;99866.25;;;6.06;93.79
76297;BME280;65104;52.994;6.552;2022-11-18T04:19:57;99869.50;;;6.00;93.85
76297;BME280;65104;52.994;6.552;2022-11-18T04:22:22;99882.44;;;6.08;93.72
76297;BME280;65104;52.994;6.552;2022-11-18T04:24:48;99873.94;;;6.09;93.79
76297;BME280;65104;52.994;6.552;2022-11-18T04:27:13;99885.81;;;6.07;93.52
76297;BME280;65104;52.994;6.552;2022-11-18T04:29:39;99887.50;;;6.07;94.22
76297;BME280;65104;52.994;6.552;2022-11-18T04:32:04;99887.25;;;5.96;94.53
76297;BME280;65104;52.994;6.552;2022-11-18T04:34:30;99889.09;;;6.03;93.71
76297;BME280;65104;52.994;6.552;2022-11-18T04:36:56;99900.13;;;6.02;93.85
76297;BME280;65104;52.994;6.552;2022-11-18T04:39:22;99893.22;;;5.96;93.71
76297;BME280;65104;52.994;6.552;2022-11-18T04:41:47;99891.53;;;5.97;93.98
76297;BME280;65104;52.994;6.552;2022-11-18T04:44:30;99889.94;;;6.02;94.03
76297;BME280;65104;52.994;6.552;2022-11-18T04:46:57;99909.41;;;6.00;93.27
76297;BME280;65104;52.994;6.552;2022-11-18T04:49:24;99899.22;;;6.00;93.51
76297;BME280;65104;52.994;6.552;2022-11-18T04:51:50;99900.13;;;6.02;94.10
76297;BME280;65104;52.994;6.552;2022-11-18T04:54:19;99906.00;;;5.99;93.96
76297;BME280;65104;52.994;6.552;2022-11-18T04:56:45;99906.00;;;5.99;93.81
76297;BME280;65104;52.994;6.552;2022-11-18T04:59:11;99905.25;;;6.03;94.33
76297;BME280;65104;52.994;6.552;2022-11-18T05:01:37;99906.75;;;5.94;94.24
76297;BME280;65104;52.994;6.552;2022-11-18T05:04:04;99912.69;;;5.94;93.97
76297;BME280;65104;52.994;6.552;2022-11-18T05:06:29;99904.16;;;5.92;93.76
76297;BME280;65104;52.994;6.552;2022-11-18T05:08:59;99921.09;;;5.89;94.07
76297;BME280;65104;52.994;6.552;2022-11-18T05:11:28;99925.41;;;5.93;93.54
76297;BME280;65104;52.994;6.552;2022-11-18T05:14:13;99926.22;;;5.92;94.04
76297;BME280;65104;52.994;6.552;2022-11-18T05:16:39;99917.59;;;5.87;93.70
76297;BME280;65104;52.994;6.552;2022-11-18T05:19:05;99922.00;;;5.92;93.50
76297;BME280;65104;52.994;6.552;2022-11-18T05:21:31;99926.19;;;5.89;94.57
76297;BME280;65104;52.994;6.552;2022-11-18T05:24:00;99933.88;;;5.90;94.02
76297;BME280;65104;52.994;6.552;2022-11-18T05:26:26;99934.53;;;5.85;93.79
76297;BME280;65104;52.994;6.552;2022-11-18T05:28:52;99932.84;;;5.85;93.36
76297;BME280;65104;52.994;6.552;2022-11-18T05:31:17;99949.03;;;5.87;94.24
76297;BME280;65104;52.994;6.552;2022-11-18T05:33:44;99940.59;;;5.88;94.57
76297;BME280;65104;52.994;6.552;2022-11-18T05:36:14;99945.63;;;5.87;93.56
76297;BME280;65104;52.994;6.552;2022-11-18T05:38:43;99944.75;;;5.86;93.89
76297;BME280;65104;52.994;6.552;2022-11-18T05:41:09;99943.81;;;5.83;94.33
76297;BME280;65104;52.994;6.552;2022-11-18T05:43:36;99945.50;;;5.81;94.06
76297;BME280;65104;52.994;6.552;2022-11-18T05:46:02;99952.28;;;5.82;94.36
76297;BME280;65104;52.994;6.552;2022-11-18T05:48:28;99957.31;;;5.79;94.16
76297;BME280;65104;52.994;6.552;2022-11-18T05:50:54;99957.38;;;5.82;94.43
76297;BME280;65104;52.994;6.552;2022-11-18T05:53:22;99965.84;;;5.79;94.49
76297;BME280;65104;52.994;6.552;2022-11-18T05:58:48;99970.88;;;5.78;94.81
76297;BME280;65104;52.994;6.552;2022-11-18T06:01:20;99968.28;;;5.76;94.73
76297;BME280;65104;52.994;6.552;2022-11-18T06:03:47;99973.31;;;5.73;94.51
76297;BME280;65104;52.994;6.552;2022-11-18T06:06:16;99980.84;;;5.69;94.42
76297;BME280;65104;52.994;6.552;2022-11-18T06:09:05;99985.22;;;5.74;93.73
76297;BME280;65104;52.994;6.552;2022-11-18T06:11:40;99992.69;;;5.66;94.30
76297;BME280;65104;52.994;6.552;2022-11-18T06:14:19;99988.44;;;5.67;93.72
76297;BME280;65104;52.994;6.552;2022-11-18T06:16:53;99991.84;;;5.68;94.01
76297;BME280;65104;52.994;6.552;2022-11-18T06:19:21;100003.69;;;5.65;95.01
76297;BME280;65104;52.994;6.552;2022-11-18T06:21:46;100013.81;;;5.64;95.02
76297;BME280;65104;52.994;6.552;2022-11-18T06:24:13;100012.09;;;5.61;94.23
76297;BME280;65104;52.994;6.552;2022-11-18T06:26:39;100027.31;;;5.60;94.65
76297;BME280;65104;52.994;6.552;2022-11-18T06:29:06;100015.41;;;5.59;94.57
76297;BME280;65104;52.994;6.552;2022-11-18T06:31:32;100020.41;;;5.54;93.99
76297;BME280;65104;52.994;6.552;2022-11-18T06:33:58;100022.09;;;5.55;94.14
76297;BME280;65104;52.994;6.552;2022-11-18T06:36:23;100032.34;;;5.57;93.94
76297;BME280;65104;52.994;6.552;2022-11-18T06:38:49;100040.88;;;5.59;94.35
76297;BME280;65104;52.994;6.552;2022-11-18T06:41:14;100036.41;;;5.50;94.43
76297;BME280;65104;52.994;6.552;2022-11-18T06:43:39;100045.88;;;5.54;94.01
76297;BME280;65104;52.994;6.552;2022-11-18T06:46:15;100045.09;;;5.58;94.36
76297;BME280;65104;52.994;6.552;2022-11-18T06:49:00;100048.56;;;5.60;94.09
76297;BME280;65104;52.994;6.552;2022-11-18T06:51:26;100055.38;;;5.61;93.56
76297;BME280;65104;52.994;6.552;2022-11-18T06:53:52;100056.06;;;5.56;93.50
76297;BME280;65104;52.994;6.552;2022-11-18T06:56:19;100057.84;;;5.58;94.07
76297;BME280;65104;52.994;6.552;2022-11-18T06:58:51;100073.22;;;5.61;94.20
76297;BME280;65104;52.994;6.552;2022-11-18T07:01:19;100065.38;;;5.55;93.61
76297;BME280;65104;52.994;6.552;2022-11-18T07:03:48;100069.59;;;5.53;93.71
76297;BME280;65104;52.994;6.552;2022-11-18T07:06:17;100071.34;;;5.54;93.99
76297;BME280;65104;52.994;6.552;2022-11-18T07:08:43;100077.44;;;5.61;93.79
76297;BME280;65104;52.994;6.552;2022-11-18T07:11:11;100074.03;;;5.60;93.40
76297;BME280;65104;52.994;6.552;2022-11-18T07:13:38;100084.22;;;5.60;93.99
76297;BME280;65104;52.994;6.552;2022-11-18T07:16:09;100092.69;;;5.59;94.58
76297;BME280;65104;52.994;6.552;2022-11-18T07:18:36;100094.41;;;5.60;94.18
76297;BME280;65104;52.994;6.552;2022-11-18T07:21:03;100099.41;;;5.57;93.40
76297;BME280;65104;52.994;6.552;2022-11-18T07:23:30;100095.09;;;5.55;93.40
76297;BME280;65104;52.994;6.552;2022-11-18T07:25:55;100109.69;;;5.60;93.91
76297;BME280;65104;52.994;6.552;2022-11-18T07:28:21;100104.50;;;5.57;93.55
76297;BME280;65104;52.994;6.552;2022-11-18T07:30:46;100118.75;;;5.51;94.08
76297;BME280;65104;52.994;6.552;2022-11-18T07:33:11;100122.22;;;5.53;93.60
76297;BME280;65104;52.994;6.552;2022-11-18T07:35:38;100120.44;;;5.50;93.24
76297;BME280;65104;52.994;6.552;2022-11-18T07:38:04;100123.94;;;5.54;93.20
76297;BME280;65104;52.994;6.552;2022-11-18T07:40:29;100123.91;;;5.52;93.87
76297;BME280;65104;52.994;6.552;2022-11-18T07:42:54;100123.94;;;5.54;93.72
76297;BME280;65104;52.994;6.552;2022-11-18T07:45:20;100124.81;;;5.54;93.39
76297;BME280;65104;52.994;6.552;2022-11-18T07:47:45;100132.44;;;5.54;92.96
76297;BME280;65104;52.994;6.552;2022-11-18T07:50:11;100128.19;;;5.53;92.39
76297;BME280;65104;52.994;6.552;2022-11-18T07:52:36;100127.31;;;5.53;92.23
76297;BME280;65104;52.994;6.552;2022-11-18T07:55:01;100140.16;;;5.57;92.75
76297;BME280;65104;52.994;6.552;2022-11-18T07:57:27;100138.38;;;5.53;93.36
76297;BME280;65104;52.994;6.552;2022-11-18T07:59:52;100142.59;;;5.53;93.16
76297;BME280;65104;52.994;6.552;2022-11-18T08:02:18;100151.97;;;5.55;93.61
76297;BME280;65104;52.994;6.552;2022-11-18T08:04:43;100157.97;;;5.57;92.63
76297;BME280;65104;52.994;6.552;2022-11-18T08:07:09;100161.34;;;5.56;92.62
76297;BME280;65104;52.994;6.552;2022-11-18T08:09:34;100169.81;;;5.55;93.15
76297;BME280;65104;52.994;6.552;2022-11-18T08:12:00;100171.56;;;5.58;93.46
76297;BME280;65104;52.994;6.552;2022-11-18T08:14:26;100171.53;;;5.56;93.47
76297;BME280;65104;52.994;6.552;2022-11-18T08:16:52;100180.09;;;5.58;93.37
76297;BME280;65104;52.994;6.552;2022-11-18T08:19:18;100173.91;;;5.50;92.68
76297;BME280;65104;52.994;6.552;2022-11-18T08:21:43;100177.28;;;5.49;92.69
76297;BME280;65104;52.994;6.552;2022-11-18T08:24:09;100180.03;;;5.57;92.52
76297;BME280;65104;52.994;6.552;2022-11-18T08:26:34;100187.72;;;5.58;93.44
76297;BME280;65104;52.994;6.552;2022-11-18T08:29:00;100184.34;;;5.59;93.29
76297;BME280;65104;52.994;6.552;2022-11-18T08:31:27;100190.31;;;5.60;92.61
76297;BME280;65104;52.994;6.552;2022-11-18T08:34:04;100187.00;;;5.62;93.24
76297;BME280;65104;52.994;6.552;2022-11-18T08:36:32;100188.47;;;5.54;92.74
76297;BME280;65104;52.994;6.552;2022-11-18T08:38:59;100195.25;;;5.54;92.95
76297;BME280;65104;52.994;6.552;2022-11-18T08:41:31;100196.13;;;5.56;92.39
76297;BME280;65104;52.994;6.552;2022-11-18T08:43:58;100194.50;;;5.58;92.19
76297;BME280;65104;52.994;6.552;2022-11-18T08:46:23;100197.81;;;5.55;93.03
76297;BME280;65104;52.994;6.552;2022-11-18T08:48:49;100195.50;;;5.63;92.93
76297;BME280;65104;52.994;6.552;2022-11-18T08:51:14;100198.88;;;5.62;93.22
76297;BME280;65104;52.994;6.552;2022-11-18T08:53:40;100205.38;;;5.52;93.01
76297;BME280;65104;52.994;6.552;2022-11-18T08:56:06;100204.53;;;5.52;92.28
76297;BME280;65104;52.994;6.552;2022-11-18T08:58:31;100215.53;;;5.51;93.11
76297;BME280;65104;52.994;6.552;2022-11-18T09:00:57;100214.66;;;5.50;93.09
76297;BME280;65104;52.994;6.552;2022-11-18T09:03:22;100214.75;;;5.53;93.26
76297;BME280;65104;52.994;6.552;2022-11-18T09:05:48;100221.59;;;5.54;91.95
76297;BME280;65104;52.994;6.552;2022-11-18T09:08:15;100227.22;;;5.44;91.90
76297;BME280;65104;52.994;6.552;2022-11-18T09:10:41;100220.41;;;5.43;92.32
76297;BME280;65104;52.994;6.552;2022-11-18T09:13:06;100228.03;;;5.43;91.94
76297;BME280;65104;52.994;6.552;2022-11-18T09:15:31;100228.94;;;5.45;92.86
76297;BME280;65104;52.994;6.552;2022-11-18T09:17:57;100232.31;;;5.44;92.35
76297;BME280;65104;52.994;6.552;2022-11-18T09:20:23;100234.66;;;5.38;92.09
76297;BME280;65104;52.994;6.552;2022-11-18T09:22:48;100234.81;;;5.43;92.11
76297;BME280;65104;52.994;6.552;2022-11-18T09:25:14;100245.22;;;5.50;92.87
76297;BME280;65104;52.994;6.552;2022-11-18T09:27:40;100243.53;;;5.51;92.93
76297;BME280;65104;52.994;6.552;2022-11-18T09:30:06;100250.22;;;5.47;92.38
76297;BME280;65104;52.994;6.552;2022-11-18T09:32:32;100250.25;;;5.49;92.18
76297;BME280;65104;52.994;6.552;2022-11-18T09:34:58;100255.50;;;5.53;92.79
76297;BME280;65104;52.994;6.552;2022-11-18T09:37:23;100265.59;;;5.50;93.09
76297;BME280;65104;52.994;6.552;2022-11-18T09:39:49;100260.59;;;5.55;92.55
76297;BME280;65104;52.994;6.552;2022-11-18T09:43:06;100258.13;;;5.56;92.90
76297;BME280;65104;52.994;6.552;2022-11-18T09:45:18;100278.59;;;5.59;93.83
76297;BME280;65104;52.994;6.552;2022-11-18T09:47:47;100277.72;;;5.59;92.65
76297;BME280;65104;52.994;6.552;2022-11-18T09:50:16;100270.94;;;5.59;92.59
76297;BME280;65104;52.994;6.552;2022-11-18T09:53:17;100275.34;;;5.65;92.95
76297;BME280;65104;52.994;6.552;2022-11-18T09:55:43;100277.66;;;5.57;92.42
76297;BME280;65104;52.994;6.552;2022-11-18T09:58:17;100274.91;;;5.50;92.18
76297;BME280;65104;52.994;6.552;2022-11-18T10:00:44;100279.31;;;5.55;91.62
76297;BME280;65104;52.994;6.552;2022-11-18T10:03:40;100279.50;;;5.61;91.77
76297;BME280;65104;52.994;6.552;2022-11-18T10:11:24;100290.50;;;5.60;91.42
76297;BME280;65104;52.994;6.552;2022-11-18T10:14:04;100290.34;;;5.56;91.60
76297;BME280;65104;52.994;6.552;2022-11-18T10:16:39;100304.69;;;5.52;91.50
76297;BME280;65104;52.994;6.552;2022-11-18T10:22:28;100305.84;;;5.62;91.40
76297;BME280;65104;52.994;6.552;2022-11-18T10:24:57;100313.25;;;5.54;90.96
76297;BME280;65104;52.994;6.552;2022-11-18T10:27:32;100312.19;;;5.48;91.57
76297;BME280;65104;52.994;6.552;2022-11-18T10:30:00;100315.75;;;5.53;91.50
76297;BME280;65104;52.994;6.552;2022-11-18T10:32:26;100328.31;;;5.48;90.88
76297;BME280;65104;52.994;6.552;2022-11-18T10:34:57;100330.81;;;5.47;91.89
76297;BME280;65104;52.994;6.552;2022-11-18T10:39:51;100327.25;;;5.69;92.17
76297;BME280;65104;52.994;6.552;2022-11-18T10:42:25;100327.19;;;5.67;90.89
76297;BME280;65104;52.994;6.552;2022-11-18T10:44:52;100321.50;;;5.47;91.67
76297;BME280;65104;52.994;6.552;2022-11-18T10:47:22;100330.97;;;5.51;91.50
76297;BME280;65104;52.994;6.552;2022-11-18T10:49:49;100339.56;;;5.55;91.96
76297;BME280;65104;52.994;6.552;2022-11-18T10:52:15;100341.94;;;5.49;92.26
76297;BME280;65104;52.994;6.552;2022-11-18T10:54:41;100346.97;;;5.47;91.62
76297;BME280;65104;52.994;6.552;2022-11-18T10:57:21;100344.94;;;5.37;91.74
76297;BME280;65104;52.994;6.552;2022-11-18T10:59:53;100352.34;;;5.29;91.73
76297;BME280;65104;52.994;6.552;2022-11-18T11:02:29;100355.06;;;5.34;91.29
76297;BME280;65104;52.994;6.552;2022-11-18T11:04:57;100351.59;;;5.32;92.05
76297;BME280;65104;52.994;6.552;2022-11-18T11:07:30;100362.59;;;5.31;92.18
76297;BME280;65104;52.994;6.552;2022-11-18T11:12:46;100370.50;;;5.13;92.20
76297;BME280;65104;52.994;6.552;2022-11-18T11:15:20;100356.94;;;5.14;92.24
76297;BME280;65104;52.994;6.552;2022-11-18T11:17:57;100365.88;;;5.27;92.72
76297;BME280;65104;52.994;6.552;2022-11-18T11:20:41;100363.91;;;5.20;92.66
76297;BME280;65104;52.994;6.552;2022-11-18T11:23:12;100371.66;;;5.23;92.56
76297;BME280;65104;52.994;6.552;2022-11-18T11:25:41;100368.00;;;5.15;93.38
76297;BME280;65104;52.994;6.552;2022-11-18T11:30:55;100377.88;;;5.06;92.49
76297;BME280;65104;52.994;6.552;2022-11-18T11:33:29;100370.50;;;5.13;93.08
76297;BME280;65104;52.994;6.552;2022-11-18T11:36:15;100380.72;;;5.15;93.72
76297;BME280;65104;52.994;6.552;2022-11-18T11:38:51;100378.47;;;5.24;92.84
76297;BME280;65104;52.994;6.552;2022-11-18T11:41:22;100387.53;;;5.16;92.80
76297;BME280;65104;52.994;6.552;2022-11-18T11:52:20;100395.47;;;5.25;92.51
76297;BME280;65104;52.994;6.552;2022-11-18T11:55:09;100389.47;;;5.23;92.30
76297;BME280;65104;52.994;6.552;2022-11-18T12:00:34;100410.09;;;5.05;92.26
76297;BME280;65104;52.994;6.552;2022-11-18T12:03:25;100415.50;;;5.14;91.91
76297;BME280;65104;52.994;6.552;2022-11-18T12:05:53;100420.53;;;5.13;92.93
76297;BME280;65104;52.994;6.552;2022-11-18T12:08:24;100423.56;;;5.03;92.73
76297;BME280;65104;52.994;6.552;2022-11-18T12:17:05;100425.38;;;4.81;91.89
76297;BME280;65104;52.994;6.552;2022-11-18T12:19:37;100425.94;;;4.73;92.31
76297;BME280;65104;52.994;6.552;2022-11-18T12:22:03;100426.88;;;4.76;92.34
76297;BME280;65104;52.994;6.552;2022-11-18T12:24:37;100426.81;;;4.73;91.89
76297;BME280;65104;52.994;6.552;2022-11-18T12:29:41;100431.16;;;4.77;92.22
76297;BME280;65104;52.994;6.552;2022-11-18T12:32:37;100439.41;;;4.70;92.07
76297;BME280;65104;52.994;6.552;2022-11-18T12:40:40;100444.00;;;4.80;90.25
76297;BME280;65104;52.994;6.552;2022-11-18T12:51:43;100441.94;;;4.70;90.38
76297;BME280;65104;52.994;6.552;2022-11-18T12:56:49;100446.28;;;4.73;90.29
76297;BME280;65104;52.994;6.552;2022-11-18T12:59:15;100451.56;;;4.79;90.86
76297;BME280;65104;52.994;6.552;2022-11-18T13:01:41;100451.25;;;4.70;90.35
76297;BME280;65104;52.994;6.552;2022-11-18T13:04:15;100452.91;;;4.69;91.05
76297;BME280;65104;52.994;6.552;2022-11-18T13:06:41;100449.34;;;4.64;90.71
76297;BME280;65104;52.994;6.552;2022-11-18T13:09:14;100454.31;;;4.61;90.45
76297;BME280;65104;52.994;6.552;2022-11-18T13:11:53;100459.19;;;4.55;91.16
76297;BME280;65104;52.994;6.552;2022-11-18T13:14:28;100458.16;;;4.50;90.63
76297;BME280;65104;52.994;6.552;2022-11-18T13:17:37;100469.66;;;4.40;91.04
76297;BME280;65104;52.994;6.552;2022-11-18T13:20:29;100480.50;;;4.59;90.30
76297;BME280;65104;52.994;6.552;2022-11-18T13:23:03;100472.19;;;4.63;90.33
76297;BME280;65104;52.994;6.552;2022-11-18T13:25:49;100471.94;;;4.57;90.36
76297;BME280;65104;52.994;6.552;2022-11-18T13:28:26;100480.75;;;4.65;90.64
76297;BME280;65104;52.994;6.552;2022-11-18T13:31:06;100474.88;;;4.67;91.45
76297;BME280;65104;52.994;6.552;2022-11-18T13:33:38;100492.63;;;4.66;90.20
76297;BME280;65104;52.994;6.552;2022-11-18T13:36:21;100498.69;;;4.69;89.94
76297;BME280;65104;52.994;6.552;2022-11-18T13:39:03;100495.47;;;4.51;90.15
76297;BME280;65104;52.994;6.552;2022-11-18T13:41:31;100493.47;;;4.42;89.21
76297;BME280;65104;52.994;6.552;2022-11-18T13:44:20;100503.31;;;4.57;89.74
76297;BME280;65104;52.994;6.552;2022-11-18T13:46:51;100502.63;;;4.39;89.71
76297;BME280;65104;52.994;6.552;2022-11-18T13:49:26;100509.56;;;4.43;90.19
76297;BME280;65104;52.994;6.552;2022-11-18T13:51:56;100518.97;;;4.23;89.48
76297;BME280;65104;52.994;6.552;2022-11-18T13:54:24;100511.41;;;4.25;90.77
76297;BME280;65104;52.994;6.552;2022-11-18T13:57:19;100511.47;;;4.26;91.04
76297;BME280;65104;52.994;6.552;2022-11-18T13:59:49;100520.19;;;4.33;90.94
76297;BME280;65104;52.994;6.552;2022-11-18T14:02:16;100515.13;;;4.33;90.19
76297;BME280;65104;52.994;6.552;2022-11-18T14:05:14;100520.78;;;4.26;90.69
76297;BME280;65104;52.994;6.552;2022-11-18T14:08:04;100525.72;;;4.23;90.20
76297;BME280;65104;52.994;6.552;2022-11-18T14:10:48;100523.53;;;4.09;89.89
76297;BME280;65104;52.994;6.552;2022-11-18T14:13:18;100536.34;;;4.12;89.89
76297;BME280;65104;52.994;6.552;2022-11-18T14:15:45;100540.38;;;4.07;90.28
76297;BME280;65104;52.994;6.552;2022-11-18T14:18:22;100542.63;;;4.00;89.46
76297;BME280;65104;52.994;6.552;2022-11-18T14:20:51;100550.03;;;4.16;90.58
76297;BME280;65104;52.994;6.552;2022-11-18T14:23:25;100559.22;;;4.12;90.42
76297;BME280;65104;52.994;6.552;2022-11-18T14:25:51;100544.16;;;3.96;90.20
76297;BME280;65104;52.994;6.552;2022-11-18T14:33:21;100565.03;;;3.89;89.63
76297;BME280;65104;52.994;6.552;2022-11-18T14:35:53;100562.94;;;4.00;89.81
76297;BME280;65104;52.994;6.552;2022-11-18T14:41:03;100579.00;;;3.99;90.12
76297;BME280;65104;52.994;6.552;2022-11-18T14:43:29;100576.44;;;3.99;89.11
76297;BME280;65104;52.994;6.552;2022-11-18T14:46:01;100582.72;;;4.07;89.69
76297;BME280;65104;52.994;6.552;2022-11-18T14:48:28;100579.16;;;4.03;90.06
76297;BME280;65104;52.994;6.552;2022-11-18T14:50:55;100585.06;;;3.82;89.53
76297;BME280;65104;52.994;6.552;2022-11-18T14:53:20;100593.53;;;3.82;91.05
76297;BME280;65104;52.994;6.552;2022-11-18T14:55:50;100597.31;;;3.71;90.92
76297;BME280;65104;52.994;6.552;2022-11-18T14:58:16;100601.06;;;3.60;90.66